Time;durP1;ratioP1;P1;durP2;ratioP2;P2;SDS_P1;SDS_P2;PMS_P1;PMS_P2;Temp;Humidity;BMP_temperature;BMP_pressure;BME280_temperature;BME280_humidity;BME280_pressure;Samples;Min_cycle;Max_cycle;Signal;HPM_P1;HPM_P2
2022/04/01 00:00:41;;;;;;;4.90;3.70;;;;;2.20;99649.00;;;;5065477;28;20224;-70
2022/04/01 00:03:27;;;;;;;3.80;2.83;;;;;2.20;99601.00;;;;5061361;28;20257;-70
2022/04/01 00:06:15;;;;;;;4.27;3.40;;;;;2.20;99662.00;;;;5056991;28;20235;-72
2022/04/01 00:09:01;;;;;;;5.07;3.30;;;;;2.20;99664.00;;;;5062000;28;20248;-71
2022/04/01 00:11:47;;;;;;;4.93;3.27;;;;;2.30;99667.00;;;;5067758;28;20251;-71
2022/04/01 00:14:33;;;;;;;3.87;3.07;;;;;2.20;99666.00;;;;5049071;28;20710;-69
2022/04/01 00:17:19;;;;;;;3.53;2.67;;;;;2.20;99667.00;;;;5019195;28;20225;-69
2022/04/01 00:20:06;;;;;;;4.50;3.40;;;;;2.30;99651.00;;;;5024900;28;20235;-69
2022/04/01 00:22:54;;;;;;;5.00;2.67;;;;;2.20;99665.00;;;;5033219;28;20229;-70
2022/04/01 00:25:41;;;;;;;3.27;2.90;;;;;2.10;99678.00;;;;5034557;28;20292;-69
2022/04/01 00:28:28;;;;;;;3.70;3.00;;;;;2.20;99676.00;;;;5037068;28;20236;-69
2022/04/01 00:31:14;;;;;;;3.70;2.93;;;;;1.90;99685.00;;;;5022458;28;20951;-69
2022/04/01 00:37:02;;;;;;;3.43;2.60;;;;;2.20;99676.00;;;;5038675;28;20224;-69
2022/04/01 00:39:50;;;;;;;2.70;2.40;;;;;2.20;99687.00;;;;5042836;28;20228;-69
2022/04/01 00:42:36;;;;;;;5.10;3.27;;;;;2.20;99686.00;;;;5034633;28;20229;-69
2022/04/01 00:45:23;;;;;;;4.50;3.00;;;;;2.20;99687.00;;;;5037795;28;20223;-69
2022/04/01 00:48:10;;;;;;;3.40;2.57;;;;;2.20;99688.00;;;;5024540;28;20351;-69
2022/04/01 00:50:56;;;;;;;4.03;3.10;;;;;2.20;99688.00;;;;5043348;28;20232;-68
2022/04/01 00:53:43;;;;;;;3.90;3.07;;;;;2.00;99699.00;;;;5039192;28;20729;-68
2022/04/01 00:56:32;;;;;;;6.43;2.70;;;;;2.10;99692.00;;;;5039027;28;20304;-69
2022/04/01 00:59:19;;;;;;;3.67;2.90;;;;;2.20;99703.00;;;;5035836;28;20237;-69
2022/04/01 01:02:08;;;;;;;2.80;2.47;;;;;2.10;99692.00;;;;5044184;28;20295;-68
2022/04/01 01:04:55;;;;;;;4.47;2.77;;;;;2.10;99704.00;;;;5038098;28;20315;-69
2022/04/01 01:07:42;;;;;;;4.23;3.17;;;;;2.10;99698.00;;;;5016782;28;20614;-69
2022/04/01 01:10:28;;;;;;;5.70;3.60;;;;;2.10;99699.00;;;;5028571;28;20232;-69
2022/04/01 01:13:17;;;;;;;3.87;2.73;;;;;2.20;99695.00;;;;5028504;28;20271;-68
2022/04/01 01:16:04;;;;;;;3.50;2.77;;;;;2.20;99704.00;;;;5039163;28;20229;-68
2022/04/01 01:19:00;;;;;;;3.33;2.93;;;;;2.20;99703.00;;;;5038670;28;20248;-68
2022/04/01 01:21:49;;;;;;;4.77;3.87;;;;;2.20;99702.00;;;;5037202;28;20314;-69
2022/04/01 01:24:37;;;;;;;4.77;3.23;;;;;2.10;99702.00;;;;5040111;28;20633;-69
2022/04/01 01:27:24;;;;;;;5.00;2.97;;;;;2.10;99703.00;;;;5032317;28;20226;-69
2022/04/01 01:30:11;;;;;;;3.73;3.37;;;;;2.10;99702.00;;;;5035428;28;20387;-68
2022/04/01 01:32:58;;;;;;;4.57;2.97;;;;;2.20;99704.00;;;;5037838;28;20290;-68
2022/04/01 01:35:44;;;;;;;4.47;3.30;;;;;2.20;99703.00;;;;5043876;28;20732;-69
2022/04/01 01:38:32;;;;;;;4.27;3.17;;;;;2.20;99701.00;;;;5037692;28;20264;-69
2022/04/01 01:41:21;;;;;;;3.17;2.70;;;;;2.00;99702.00;;;;5022812;28;20319;-69
2022/04/01 01:44:07;;;;;;;3.97;2.67;;;;;2.10;99709.00;;;;5031138;28;20237;-68
2022/04/01 01:46:54;;;;;;;4.13;3.73;;;;;2.10;99705.00;;;;5037787;28;20228;-70
2022/04/01 01:54:42;;;;;;;3.20;2.90;;;;;2.00;99709.00;;;;5036498;28;20299;-69
2022/04/01 01:55:52;;;;;;;4.13;3.47;;;;;2.00;99704.00;;;;5039710;28;20355;-71
2022/04/01 01:58:39;;;;;;;5.67;3.30;;;;;2.00;99713.00;;;;5039666;28;20704;-70
2022/04/01 02:01:26;;;;;;;4.47;3.17;;;;;2.10;99706.00;;;;5033602;28;20237;-68
2022/04/01 02:04:12;;;;;;;4.93;3.13;;;;;2.10;99709.00;;;;5030293;28;20224;-69
2022/04/01 02:06:59;;;;;;;5.10;3.70;;;;;2.10;99710.00;;;;5038101;28;20228;-67
2022/04/01 02:09:46;;;;;;;4.80;3.10;;;;;2.00;99707.00;;;;5029266;28;20237;-68
2022/04/01 02:12:33;;;;;;;5.50;3.77;;;;;2.00;99704.00;;;;5026200;28;20318;-71
2022/04/01 02:15:21;;;;;;;5.23;3.63;;;;;2.00;99707.00;;;;5025332;28;20219;-69
2022/04/01 02:18:07;;;;;;;8.07;3.50;;;;;2.00;99714.00;;;;5041072;28;20714;-67
2022/04/01 02:20:54;;;;;;;4.90;3.40;;;;;2.00;99705.00;;;;5037666;28;20224;-69
2022/04/01 02:23:42;;;;;;;4.80;3.23;;;;;1.90;99707.00;;;;5030163;28;20224;-71
2022/04/01 02:26:28;;;;;;;8.47;3.17;;;;;1.90;99716.00;;;;5040324;28;20240;-70
2022/04/01 02:29:15;;;;;;;6.33;3.40;;;;;1.80;99713.00;;;;5023920;28;20332;-70
2022/04/01 02:32:04;;;;;;;5.17;3.20;;;;;1.90;99725.00;;;;5040277;28;20233;-69
2022/04/01 02:34:51;;;;;;;6.03;3.30;;;;;1.90;99723.00;;;;5035616;28;20228;-70
2022/04/01 02:37:39;;;;;;;5.93;3.17;;;;;1.90;99714.00;;;;5034788;28;20223;-69
2022/04/01 02:40:25;;;;;;;5.97;3.13;;;;;1.90;99717.00;;;;5031816;28;20240;-69
2022/04/01 02:43:12;;;;;;;5.40;3.63;;;;;1.90;99722.00;;;;5039565;28;20231;-70
2022/04/01 02:45:58;;;;;;;4.43;3.10;;;;;1.90;99731.00;;;;5036208;28;20856;-71
2022/04/01 02:48:46;;;;;;;4.67;3.20;;;;;1.90;99722.00;;;;5040530;28;20236;-70
2022/04/01 02:51:32;;;;;;;4.33;3.30;;;;;1.90;99726.00;;;;5034092;28;20356;-69
2022/04/01 02:54:20;;;;;;;4.63;3.30;;;;;1.90;99730.00;;;;5030911;28;20235;-70
2022/04/01 02:57:09;;;;;;;4.80;3.10;;;;;1.80;99727.00;;;;5035126;28;20228;-69
2022/04/01 02:59:55;;;;;;;4.43;3.10;;;;;1.90;99732.00;;;;5022718;28;20643;-69
2022/04/01 03:02:41;;;;;;;3.00;2.60;;;;;1.80;99735.00;;;;5036996;28;20591;-70
2022/04/01 03:05:32;;;;;;;2.83;2.40;;;;;1.90;99746.00;;;;5028920;28;20290;-69
2022/04/01 03:08:18;;;;;;;3.70;2.93;;;;;1.80;99736.00;;;;5030506;28;20307;-70
2022/04/01 03:11:06;;;;;;;3.73;2.90;;;;;1.90;99740.00;;;;5032067;28;20232;-70
2022/04/01 03:13:52;;;;;;;3.10;2.50;;;;;1.90;99745.00;;;;5039395;28;20599;-70
2022/04/01 03:16:39;;;;;;;3.00;2.53;;;;;1.80;99738.00;;;;5031013;28;20228;-69
2022/04/01 03:19:26;;;;;;;3.53;2.53;;;;;1.80;99750.00;;;;5036683;28;20594;-68
2022/04/01 03:22:14;;;;;;;3.63;2.47;;;;;1.70;99756.00;;;;5020805;28;20233;-63
2022/04/01 03:25:00;;;;;;;2.93;2.27;;;;;1.60;99747.00;;;;5035635;28;20233;-69
2022/04/01 03:27:46;;;;;;;3.73;2.70;;;;;1.60;99753.00;;;;5036020;28;20311;-70
2022/04/01 03:30:33;;;;;;;4.43;2.70;;;;;1.50;99752.00;;;;5030428;28;20744;-68
2022/04/01 03:33:19;;;;;;;3.17;2.50;;;;;1.70;99761.00;;;;5025416;28;20774;-69
2022/04/01 03:36:06;;;;;;;3.07;2.43;;;;;1.60;99762.00;;;;5036225;28;20317;-65
2022/04/01 03:38:53;;;;;;;3.03;2.53;;;;;1.60;99765.00;;;;5040088;28;20241;-70
2022/04/01 03:41:40;;;;;;;3.27;2.67;;;;;1.70;99771.00;;;;5032135;28;20241;-68
2022/04/01 03:44:28;;;;;;;4.63;3.20;;;;;1.60;99776.00;;;;5031364;28;20298;-69
2022/04/01 03:47:21;;;;;;;2.80;2.30;;;;;1.60;99759.00;;;;5020961;28;20306;-69
2022/04/01 03:50:10;;;;;;;3.50;2.57;;;;;1.60;99778.00;;;;5038327;28;20234;-69
2022/04/01 03:53:02;;;;;;;3.00;2.70;;;;;1.70;99784.00;;;;5034554;28;20299;-70
2022/04/01 03:55:51;;;;;;;3.80;2.80;;;;;1.70;99787.00;;;;5039893;28;20752;-72
2022/04/01 03:58:38;;;;;;;4.77;2.67;;;;;1.70;99789.00;;;;5032328;28;20252;-69
2022/04/01 04:01:24;;;;;;;6.47;3.27;;;;;1.70;99791.00;;;;5030415;28;20629;-72
2022/04/01 04:04:11;;;;;;;2.90;2.57;;;;;1.70;99789.00;;;;5036222;28;20374;-69
2022/04/01 04:06:57;;;;;;;5.63;3.30;;;;;1.60;99767.00;;;;5037754;28;20228;-69
2022/04/01 04:09:44;;;;;;;4.27;2.77;;;;;1.70;99796.00;;;;5030392;28;20237;-69
2022/04/01 04:12:35;;;;;;;4.37;3.17;;;;;1.80;99767.00;;;;5035733;28;20320;-69
2022/04/01 04:15:21;;;;;;;3.83;2.97;;;;;1.60;99801.00;;;;5040105;28;20244;-70
2022/04/01 04:18:11;;;;;;;3.43;2.83;;;;;1.60;99804.00;;;;5041821;28;20352;-69
2022/04/01 04:21:07;;;;;;;3.77;2.60;;;;;1.60;99803.00;;;;5039785;28;20252;-69
2022/04/01 04:23:57;;;;;;;4.90;2.73;;;;;1.60;99807.00;;;;5043260;28;20432;-68
2022/04/01 04:26:48;;;;;;;2.77;2.30;;;;;1.60;99810.00;;;;5037267;28;20237;-72
2022/04/01 04:29:47;;;;;;;4.37;2.47;;;;;1.60;99818.00;;;;5038204;28;20609;-70
2022/04/01 04:32:35;;;;;;;3.00;2.40;;;;;1.60;99822.00;;;;5029976;28;20231;-69
2022/04/01 04:35:22;;;;;;;3.63;2.77;;;;;1.70;99825.00;;;;5037416;28;20229;-69
2022/04/01 04:38:10;;;;;;;2.90;2.37;;;;;1.60;99803.00;;;;5040338;28;20259;-69
2022/04/01 04:40:58;;;;;;;3.33;2.70;;;;;1.50;99823.00;;;;5042387;28;20244;-70
2022/04/01 04:43:45;;;;;;;2.63;2.40;;;;;1.40;99830.00;;;;5039115;28;20236;-68
2022/04/01 04:46:33;;;;;;;10.00;2.70;;;;;1.50;99838.00;;;;5034332;28;20235;-72
2022/04/01 04:49:22;;;;;;;3.60;2.67;;;;;1.50;99835.00;;;;5025518;28;20224;-68
2022/04/01 04:52:10;;;;;;;3.47;2.43;;;;;1.60;99835.00;;;;5035567;28;20232;-69
2022/04/01 04:54:56;;;;;;;2.50;2.10;;;;;1.50;99838.00;;;;5043261;28;20804;-71
2022/04/01 04:57:44;;;;;;;3.97;2.50;;;;;1.60;99834.00;;;;5035265;28;20229;-70
2022/04/01 05:00:31;;;;;;;3.27;2.23;;;;;1.50;99854.00;;;;5012373;28;20268;-71
2022/04/01 05:03:29;;;;;;;2.63;2.13;;;;;1.50;99860.00;;;;5022937;28;20283;-69
2022/04/01 05:06:18;;;;;;;2.67;2.47;;;;;1.40;99846.00;;;;5036209;28;20228;-68
2022/04/01 05:09:11;;;;;;;3.43;2.23;;;;;1.40;99862.00;;;;5034989;28;20225;-67
2022/04/01 05:12:04;;;;;;;2.50;1.87;;;;;1.30;99867.00;;;;5042911;28;20307;-68
2022/04/01 05:15:04;;;;;;;2.53;2.30;;;;;1.40;99874.00;;;;5034744;28;20233;-67
2022/04/01 05:17:56;;;;;;;2.10;1.73;;;;;1.30;99876.00;;;;5035821;28;20233;-68
2022/04/01 05:20:53;;;;;;;2.20;1.87;;;;;1.40;99877.00;;;;5029203;28;20241;-67
2022/04/01 05:23:50;;;;;;;2.00;1.80;;;;;1.40;99880.00;;;;5032967;28;20240;-67
2022/04/01 05:26:42;;;;;;;1.70;1.60;;;;;1.40;99880.00;;;;5038675;28;20710;-69
2022/04/01 05:29:31;;;;;;;2.10;1.90;;;;;1.40;99884.00;;;;5042351;28;20860;-68
2022/04/01 05:32:20;;;;;;;5.20;1.70;;;;;1.50;99886.00;;;;5038346;28;20224;-67
2022/04/01 05:35:07;;;;;;;1.93;1.73;;;;;1.40;99890.00;;;;5042228;28;20607;-70
2022/04/01 05:37:57;;;;;;;2.97;1.90;;;;;1.40;99906.00;;;;5035508;28;20830;-67
2022/04/01 05:40:43;;;;;;;1.50;1.40;;;;;1.40;99902.00;;;;5044399;28;20241;-70
2022/04/01 05:43:30;;;;;;;2.23;1.93;;;;;1.40;99905.00;;;;5026889;28;20232;-71
2022/04/01 05:46:17;;;;;;;2.77;1.87;;;;;1.40;99873.00;;;;5035602;28;20386;-68
2022/04/01 05:49:04;;;;;;;2.00;1.90;;;;;1.40;99907.00;;;;5040274;28;20228;-70
2022/04/01 05:51:51;;;;;;;2.33;2.07;;;;;1.30;99910.00;;;;5036425;28;20375;-69
2022/04/01 05:54:40;;;;;;;2.00;1.77;;;;;1.30;99902.00;;;;5032902;28;20360;-69
2022/04/01 05:57:26;;;;;;;2.50;2.30;;;;;1.30;99923.00;;;;5022620;28;20236;-67
2022/04/01 06:00:14;;;;;;;2.50;2.10;;;;;1.40;99917.00;;;;5037662;28;20817;-68
2022/04/01 06:03:40;;;;;;;7.93;2.13;;;;;1.30;99928.00;;;;5036006;28;20282;-68
2022/04/01 06:06:30;;;;;;;2.67;2.17;;;;;1.50;99935.00;;;;5031756;28;20298;-68
2022/04/01 06:09:31;;;;;;;3.43;2.13;;;;;1.40;99926.00;;;;5042444;28;20387;-68
2022/04/01 06:12:28;;;;;;;5.40;3.40;;;;;1.50;99931.00;;;;5040620;28;20228;-67
2022/04/01 06:15:19;;;;;;;2.80;2.20;;;;;1.40;99931.00;;;;5037690;28;20953;-71
2022/04/01 06:18:16;;;;;;;2.47;2.07;;;;;1.50;99934.00;;;;5035815;28;20920;-69
2022/04/01 06:21:04;;;;;;;2.60;2.30;;;;;1.40;99943.00;;;;5036044;28;20283;-69
2022/04/01 06:24:05;;;;;;;5.57;3.57;;;;;1.50;99946.00;;;;5041017;28;20411;-69
2022/04/01 06:26:57;;;;;;;2.60;2.00;;;;;1.50;99954.00;;;;5029981;28;20779;-71
2022/04/01 06:29:53;;;;;;;2.53;1.83;;;;;1.50;99953.00;;;;5027525;28;20741;-68
2022/04/01 06:32:51;;;;;;;2.20;1.93;;;;;1.50;99951.00;;;;5032498;28;20233;-68
2022/04/01 06:35:44;;;;;;;2.37;2.10;;;;;1.40;99952.00;;;;5041994;28;20225;-68
2022/04/01 06:38:39;;;;;;;1.90;1.73;;;;;1.50;99934.00;;;;5023799;28;20228;-69
2022/04/01 06:41:31;;;;;;;2.20;1.60;;;;;1.50;99968.00;;;;5041842;28;20227;-69
2022/04/01 06:44:17;;;;;;;2.10;1.50;;;;;1.50;99969.00;;;;5036560;28;20344;-68
2022/04/01 06:47:05;;;;;;;3.50;1.73;;;;;1.50;99968.00;;;;5039971;28;20686;-69
2022/04/01 06:49:53;;;;;;;3.33;2.73;;;;;1.40;99976.00;;;;5034204;28;24788;-71
2022/04/01 06:52:39;;;;;;;2.67;2.03;;;;;1.40;99981.00;;;;5024733;28;20228;-69
2022/04/01 06:55:26;;;;;;;1.90;1.80;;;;;1.50;99982.00;;;;5024815;28;20867;-69
2022/04/01 06:58:12;;;;;;;2.23;1.80;;;;;1.50;99994.00;;;;5035372;28;20248;-69
2022/04/01 07:00:59;;;;;;;2.73;1.90;;;;;1.50;99991.00;;;;5040305;28;20290;-68
2022/04/01 07:03:53;;;;;;;3.87;2.90;;;;;1.60;99991.00;;;;5034756;28;20304;-70
2022/04/01 07:06:39;;;;;;;4.00;2.70;;;;;1.50;100002.00;;;;5031800;28;20236;-69
2022/04/01 07:09:26;;;;;;;2.10;1.80;;;;;1.60;99993.00;;;;5037435;28;20871;-68
2022/04/01 07:12:13;;;;;;;2.40;1.80;;;;;1.60;99996.00;;;;5040376;28;20224;-69
2022/04/01 07:14:59;;;;;;;3.03;2.23;;;;;1.50;100003.00;;;;5038844;28;20243;-68
2022/04/01 07:17:46;;;;;;;2.13;1.93;;;;;1.70;100003.00;;;;5034601;28;20992;-68
2022/04/01 07:20:34;;;;;;;4.07;2.60;;;;;1.70;100006.00;;;;5030647;28;20304;-67
2022/04/01 07:23:20;;;;;;;3.37;2.53;;;;;1.80;100010.00;;;;5041264;28;20248;-68
2022/04/01 07:26:06;;;;;;;2.20;2.00;;;;;1.70;100019.00;;;;5032408;28;20239;-68
2022/04/01 07:28:54;;;;;;;3.23;1.90;;;;;1.90;100021.00;;;;5035521;28;20232;-68
2022/04/01 07:35:01;;;;;;;2.27;2.07;;;;;1.90;100034.00;;;;5038283;28;20224;-68
2022/04/01 07:37:49;;;;;;;4.70;2.47;;;;;1.70;100025.00;;;;5032276;28;20355;-68
2022/04/01 07:40:39;;;;;;;2.30;2.10;;;;;1.70;100034.00;;;;5030545;28;20235;-68
2022/04/01 07:43:25;;;;;;;2.90;2.23;;;;;1.80;100036.00;;;;5023632;28;20229;-69
2022/04/01 07:46:12;;;;;;;3.13;2.37;;;;;1.80;100033.00;;;;5042292;28;20229;-68
2022/04/01 07:48:59;;;;;;;3.40;2.10;;;;;1.90;100041.00;;;;5032195;28;20306;-69
2022/04/01 07:51:46;;;;;;;3.50;2.43;;;;;1.80;100053.00;;;;5034644;28;20299;-68
2022/04/01 07:54:34;;;;;;;3.07;2.07;;;;;1.60;100051.00;;;;5040650;28;20314;-68
2022/04/01 07:57:21;;;;;;;2.27;2.00;;;;;1.70;100043.00;;;;5036507;28;20268;-69
2022/04/01 08:00:11;;;;;;;3.60;2.60;;;;;1.80;100044.00;;;;5044772;28;20708;-67
2022/04/01 08:02:57;;;;;;;2.83;2.13;;;;;1.70;100054.00;;;;5038392;28;20228;-69
2022/04/01 08:05:43;;;;;;;2.60;2.10;;;;;1.80;100052.00;;;;5040148;28;20309;-67
2022/04/01 08:08:31;;;;;;;2.33;2.13;;;;;1.90;100062.00;;;;5023898;28;20271;-69
2022/04/01 08:11:18;;;;;;;5.70;2.70;;;;;1.90;100074.00;;;;5040230;28;20249;-69
2022/04/01 08:14:05;;;;;;;2.70;2.43;;;;;1.90;100079.00;;;;5037915;28;20228;-68
2022/04/01 08:16:51;;;;;;;3.90;2.33;;;;;1.80;100076.00;;;;5042993;28;20760;-69
2022/04/01 08:19:38;;;;;;;4.67;2.40;;;;;1.90;100078.00;;;;5038421;28;20278;-69
2022/04/01 08:22:24;;;;;;;3.70;3.30;;;;;1.80;100090.00;;;;5042816;28;20231;-68
2022/04/01 08:25:11;;;;;;;3.10;2.20;;;;;1.70;100084.00;;;;5034303;28;20605;-67
2022/04/01 08:27:59;;;;;;;5.37;3.00;;;;;1.60;100097.00;;;;5033276;28;20280;-69
2022/04/01 08:30:45;;;;;;;3.20;2.47;;;;;1.60;100102.00;;;;5034572;28;20233;-68
2022/04/01 08:33:31;;;;;;;5.23;2.77;;;;;1.70;100102.00;;;;5023618;28;20616;-70
2022/04/01 08:36:19;;;;;;;4.10;2.57;;;;;1.70;100100.00;;;;5040111;28;20662;-68
2022/04/01 08:39:05;;;;;;;2.30;2.10;;;;;1.80;100125.00;;;;5037634;28;20228;-67
2022/04/01 08:41:51;;;;;;;3.50;2.03;;;;;1.70;100122.00;;;;5038388;28;20233;-69
2022/04/01 08:44:41;;;;;;;5.07;2.97;;;;;1.90;100121.00;;;;5039291;28;20240;-67
2022/04/01 08:47:27;;;;;;;2.80;2.10;;;;;2.00;100111.00;;;;5042739;28;20767;-66
2022/04/01 08:50:13;;;;;;;3.63;2.87;;;;;2.00;100129.00;;;;5035886;28;20701;-66
2022/04/01 08:53:00;;;;;;;3.50;2.57;;;;;2.00;100136.00;;;;5040407;28;21038;-68
2022/04/01 08:55:48;;;;;;;2.00;1.77;;;;;2.00;100137.00;;;;5038722;28;20228;-68
2022/04/01 08:58:34;;;;;;;3.37;2.50;;;;;2.10;100123.00;;;;5035007;28;20310;-67
2022/04/01 09:01:22;;;;;;;2.33;2.10;;;;;2.20;100129.00;;;;5021641;28;20239;-67
2022/04/01 09:04:26;;;;;;;4.90;2.57;;;;;2.10;100138.00;;;;5020931;28;20280;-66
2022/04/01 09:07:14;;;;;;;3.77;2.73;;;;;2.10;100134.00;;;;5017951;28;20224;-68
2022/04/01 09:10:02;;;;;;;2.40;2.20;;;;;2.20;100145.00;;;;5023921;28;20718;-70
2022/04/01 09:12:49;;;;;;;3.23;2.60;;;;;2.30;100143.00;;;;5024246;28;20242;-68
2022/04/01 09:15:41;;;;;;;4.07;2.17;;;;;2.40;100147.00;;;;5020881;28;20319;-67
2022/04/01 09:18:37;;;;;;;3.17;2.10;;;;;2.30;100147.00;;;;5026999;28;20343;-67
2022/04/01 09:21:28;;;;;;;3.10;2.80;;;;;2.30;100145.00;;;;5022965;28;20319;-70
2022/04/01 09:24:14;;;;;;;3.93;2.30;;;;;2.40;100155.00;;;;5021113;28;20348;-68
2022/04/01 09:27:00;;;;;;;2.53;2.33;;;;;2.30;100151.00;;;;5023368;28;20229;-66
2022/04/01 09:29:47;;;;;;;2.70;2.50;;;;;2.30;100154.00;;;;5022973;28;20279;-68
2022/04/01 09:32:37;;;;;;;2.10;1.93;;;;;2.20;100147.00;;;;5023150;28;20336;-66
2022/04/01 09:35:28;;;;;;;4.27;2.33;;;;;2.30;100160.00;;;;5025070;28;20246;-66
2022/04/01 09:38:14;;;;;;;2.97;2.70;;;;;2.40;100160.00;;;;5019353;28;20229;-67
2022/04/01 09:41:02;;;;;;;2.23;2.03;;;;;2.50;100148.00;;;;5020159;28;20225;-67
2022/04/01 09:43:49;;;;;;;5.50;2.63;;;;;2.70;100153.00;;;;5019366;28;20241;-68
2022/04/01 09:46:40;;;;;;;2.60;2.40;;;;;2.60;100168.00;;;;5021803;28;20244;-68
2022/04/01 09:49:32;;;;;;;5.83;3.17;;;;;2.50;100166.00;;;;5023568;28;20299;-68
2022/04/01 09:52:26;;;;;;;2.83;2.30;;;;;2.60;100174.00;;;;5024233;28;20237;-67
2022/04/01 09:55:13;;;;;;;2.80;2.40;;;;;2.40;100180.00;;;;5015926;28;20787;-68
2022/04/01 09:58:00;;;;;;;3.00;2.57;;;;;2.40;100171.00;;;;5016699;28;20334;-69
2022/04/01 10:00:48;;;;;;;3.77;2.10;;;;;2.30;100147.00;;;;5014770;28;20292;-67
2022/04/01 10:03:34;;;;;;;3.47;2.93;;;;;2.30;100167.00;;;;5018235;28;20609;-68
2022/04/01 10:06:21;;;;;;;5.67;3.10;;;;;2.40;100174.00;;;;5011814;28;20369;-68
2022/04/01 10:09:14;;;;;;;3.93;2.13;;;;;2.20;100176.00;;;;5018249;28;20277;-67
2022/04/01 10:12:03;;;;;;;3.80;2.37;;;;;2.20;100168.00;;;;5016473;28;20265;-68
2022/04/01 10:14:54;;;;;;;4.60;2.53;;;;;2.30;100187.00;;;;5015721;28;20969;-68
2022/04/01 10:17:43;;;;;;;4.63;3.03;;;;;2.20;100169.00;;;;5017736;28;20254;-68
2022/04/01 10:20:33;;;;;;;4.40;2.70;;;;;2.40;100184.00;;;;5020780;28;20233;-68
2022/04/01 10:23:21;;;;;;;5.10;2.87;;;;;2.40;100184.00;;;;5017117;28;20990;-68
2022/04/01 10:26:13;;;;;;;3.50;2.77;;;;;2.30;100153.00;;;;5013959;28;20233;-67
2022/04/01 10:28:59;;;;;;;4.57;3.20;;;;;2.30;100199.00;;;;5015713;28;20233;-67
2022/04/01 10:31:53;;;;;;;4.23;3.00;;;;;2.20;100178.00;;;;5015138;28;20237;-68
2022/04/01 10:34:46;;;;;;;3.33;2.23;;;;;2.30;100176.00;;;;5024266;28;20744;-66
2022/04/01 10:37:34;;;;;;;3.73;3.00;;;;;2.30;100201.00;;;;5024467;28;20237;-68
2022/04/01 10:40:21;;;;;;;5.03;3.10;;;;;2.20;100201.00;;;;5025099;28;20273;-67
2022/04/01 10:43:12;;;;;;;2.47;2.27;;;;;2.00;100200.00;;;;5026814;28;20312;-66
2022/04/01 10:46:02;;;;;;;6.87;3.17;;;;;1.90;100213.00;;;;4988390;28;20310;-66
2022/04/01 10:52:19;;;;;;;2.83;2.47;;;;;1.80;100204.00;;;;5038625;28;20337;-69
2022/04/01 10:55:12;;;;;;;3.60;2.50;;;;;2.00;100211.00;;;;5035816;28;20229;-68
2022/04/01 10:58:08;;;;;;;4.10;2.80;;;;;2.00;100214.00;;;;5028948;28;20236;-68
2022/04/01 11:00:57;;;;;;;3.43;2.90;;;;;2.20;100213.00;;;;5038451;28;20315;-69
2022/04/01 11:03:51;;;;;;;3.23;2.50;;;;;2.10;100226.00;;;;5036026;28;20320;-67
2022/04/01 11:06:51;;;;;;;3.23;2.57;;;;;2.00;100225.00;;;;5042794;28;20725;-68
2022/04/01 11:09:49;;;;;;;3.53;2.67;;;;;2.10;100226.00;;;;5018866;28;20270;-69
2022/04/01 11:12:38;;;;;;;4.93;2.57;;;;;2.20;100217.00;;;;5027130;28;20232;-67
2022/04/01 11:15:29;;;;;;;5.20;2.93;;;;;2.40;100230.00;;;;5022183;28;20741;-67
2022/04/01 11:18:16;;;;;;;4.20;2.87;;;;;2.20;100238.00;;;;5030568;28;20233;-68
2022/04/01 11:21:03;;;;;;;3.83;2.43;;;;;2.20;100225.00;;;;5016026;28;21009;-70
2022/04/01 11:24:03;;;;;;;5.57;2.93;;;;;2.30;100240.00;;;;5011155;28;20264;-68
2022/04/01 11:26:49;;;;;;;4.30;2.90;;;;;2.30;100219.00;;;;5011850;28;20237;-67
2022/04/01 11:29:35;;;;;;;3.40;2.40;;;;;2.40;100237.00;;;;5027178;28;20597;-69
2022/04/01 11:32:22;;;;;;;4.60;2.60;;;;;2.30;100237.00;;;;5020637;28;20268;-68
2022/04/01 11:35:11;;;;;;;3.60;2.40;;;;;2.40;100243.00;;;;5023172;28;20289;-70
2022/04/01 11:37:59;;;;;;;7.90;3.27;;;;;2.40;100244.00;;;;5034699;28;20233;-67
2022/04/01 11:40:47;;;;;;;3.60;2.63;;;;;2.30;100245.00;;;;5018260;28;20234;-70
2022/04/01 11:43:34;;;;;;;5.53;3.47;;;;;2.30;100249.00;;;;5034102;28;20236;-69
2022/04/01 11:46:21;;;;;;;4.03;2.90;;;;;2.40;100247.00;;;;5034388;28;20239;-66
2022/04/01 11:49:09;;;;;;;5.00;3.43;;;;;2.40;100250.00;;;;5037505;28;20844;-69
2022/04/01 11:51:57;;;;;;;3.20;2.60;;;;;2.40;100233.00;;;;5033524;28;20258;-68
2022/04/01 11:54:47;;;;;;;5.13;3.23;;;;;2.50;100261.00;;;;5040056;28;20302;-69
2022/04/01 11:57:34;;;;;;;5.03;2.50;;;;;2.40;100256.00;;;;5036090;28;20237;-66
2022/04/01 12:00:22;;;;;;;4.33;3.20;;;;;2.50;100264.00;;;;5024920;28;20784;-69
2022/04/01 12:03:10;;;;;;;3.47;2.70;;;;;2.50;100269.00;;;;5035980;28;20720;-69
2022/04/01 12:08:41;;;;;;;4.43;2.53;;;;;2.40;100275.00;;;;5027831;28;20363;-68
2022/04/01 12:09:04;;;;;;;7.07;2.63;;;;;2.50;100278.00;;;;5029160;28;20254;-69
2022/04/01 12:11:51;;;;;;;5.87;3.70;;;;;2.40;100289.00;;;;5027823;28;20342;-68
2022/04/01 12:14:39;;;;;;;4.63;2.73;;;;;2.30;100275.00;;;;5034588;28;20242;-66
2022/04/01 12:17:25;;;;;;;7.57;3.53;;;;;2.30;100261.00;;;;5030853;28;20230;-68
2022/04/01 12:20:13;;;;;;;5.60;2.70;;;;;2.20;100275.00;;;;5027949;28;20312;-69
2022/04/01 12:23:18;;;;;;;4.70;2.70;;;;;2.40;100280.00;;;;5037073;28;20248;-68
2022/04/01 12:26:05;;;;;;;4.37;2.90;;;;;2.40;100287.00;;;;5023441;28;20308;-69
2022/04/01 12:28:52;;;;;;;2.97;2.63;;;;;2.40;100289.00;;;;5021302;28;20232;-69
2022/04/01 12:31:38;;;;;;;3.47;2.57;;;;;2.50;100291.00;;;;5028151;28;20242;-70
2022/04/01 12:34:26;;;;;;;5.20;2.70;;;;;2.80;100277.00;;;;5010900;28;20229;-69
2022/04/01 12:37:15;;;;;;;3.83;3.27;;;;;2.80;100283.00;;;;5034356;28;20229;-70
2022/04/01 12:40:02;;;;;;;4.13;2.87;;;;;2.70;100288.00;;;;5014025;28;20225;-69
2022/04/01 12:42:50;;;;;;;4.30;2.53;;;;;2.70;100289.00;;;;5005516;28;20989;-68
2022/04/01 12:45:57;;;;;;;5.87;2.70;;;;;2.70;100288.00;;;;5031658;28;20240;-67
2022/04/01 12:48:50;;;;;;;6.53;2.97;;;;;2.70;100303.00;;;;5021218;28;20232;-69
2022/04/01 12:51:38;;;;;;;3.17;2.80;;;;;2.70;100288.00;;;;5038597;28;20315;-69
2022/04/01 12:54:32;;;;;;;4.40;3.00;;;;;2.80;100292.00;;;;5034161;28;20345;-69
2022/04/01 12:57:20;;;;;;;5.90;3.00;;;;;2.90;100288.00;;;;5022796;28;20286;-69
2022/04/01 13:00:15;;;;;;;6.37;2.63;;;;;2.80;100290.00;;;;5033050;28;20246;-69
2022/04/01 13:03:02;;;;;;;4.83;3.00;;;;;3.10;100307.00;;;;5016903;28;20237;-69
2022/04/01 13:06:12;;;;;;;3.73;2.73;;;;;2.90;100289.00;;;;5012269;28;20314;-70
2022/04/01 13:09:00;;;;;;;3.90;2.80;;;;;2.90;100301.00;;;;5031231;28;20415;-71
2022/04/01 13:11:48;;;;;;;4.60;3.03;;;;;3.00;100288.00;;;;5029178;28;20598;-70
2022/04/01 13:14:35;;;;;;;4.63;2.90;;;;;3.10;100296.00;;;;5036465;28;20229;-70
2022/04/01 13:17:23;;;;;;;4.80;2.97;;;;;3.10;100296.00;;;;5040702;28;20296;-71
2022/04/01 13:20:12;;;;;;;5.73;3.20;;;;;3.10;100298.00;;;;5029523;28;20224;-67
2022/04/01 13:23:00;;;;;;;8.83;2.97;;;;;3.00;100310.00;;;;5032070;28;20228;-69
2022/04/01 13:25:46;;;;;;;4.97;3.47;;;;;3.20;100318.00;;;;5029935;28;20331;-73
2022/04/01 13:28:33;;;;;;;7.10;4.30;;;;;3.00;100307.00;;;;5036314;28;20267;-74
2022/04/01 13:31:19;;;;;;;5.30;3.67;;;;;3.00;100317.00;;;;5029122;28;20806;-70
2022/04/01 13:34:12;;;;;;;6.50;4.00;;;;;3.10;100317.00;;;;5038572;28;20269;-72
2022/04/01 13:36:58;;;;;;;4.33;3.47;;;;;3.10;100313.00;;;;5025021;28;20702;-71
2022/04/01 13:39:46;;;;;;;5.80;3.90;;;;;3.10;100316.00;;;;5023743;28;20295;-71
2022/04/01 13:42:32;;;;;;;7.47;4.23;;;;;3.00;100314.00;;;;5038001;28;20612;-69
2022/04/01 13:45:18;;;;;;;8.33;4.37;;;;;3.00;100345.00;;;;5040028;28;20315;-72
2022/04/01 13:48:05;;;;;;;7.27;4.83;;;;;2.90;100319.00;;;;5035063;28;20704;-72
2022/04/01 13:50:55;;;;;;;6.63;4.17;;;;;2.90;100335.00;;;;5017353;28;20242;-69
2022/04/01 13:53:41;;;;;;;5.63;4.47;;;;;2.90;100322.00;;;;5030804;28;20230;-68
2022/04/01 13:56:28;;;;;;;6.97;4.60;;;;;2.80;100319.00;;;;5011896;28;20331;-69
2022/04/01 13:59:15;;;;;;;6.53;4.70;;;;;2.80;100275.00;;;;5040232;28;20238;-72
2022/04/01 14:02:01;;;;;;;6.07;4.40;;;;;2.70;100311.00;;;;5034862;28;20296;-70
2022/04/01 14:04:48;;;;;;;7.20;4.43;;;;;2.70;100325.00;;;;5009856;28;20228;-69
2022/04/01 14:07:37;;;;;;;9.17;4.87;;;;;2.70;100330.00;;;;5022774;28;20319;-69
2022/04/01 14:10:23;;;;;;;10.50;5.40;;;;;2.70;100333.00;;;;5036419;28;20716;-67
2022/04/01 14:13:10;;;;;;;9.50;4.40;;;;;2.70;100312.00;;;;5041204;28;20245;-68
2022/04/01 14:16:12;;;;;;;7.20;4.90;;;;;2.70;100337.00;;;;5039289;28;20246;-68
2022/04/01 14:18:59;;;;;;;6.57;4.63;;;;;2.80;100320.00;;;;5024370;28;20244;-70
2022/04/01 14:21:47;;;;;;;7.10;4.50;;;;;2.80;100346.00;;;;5034955;28;20375;-70
2022/04/01 14:24:34;;;;;;;10.97;5.83;;;;;2.90;100335.00;;;;5037645;28;20254;-69